createdAt,value
2023-01-17T00:01:54.273Z,94.67
2023-01-17T00:04:44.588Z,94.97
2023-01-17T00:07:35.161Z,94.98
2023-01-17T00:10:07.383Z,95.30
2023-01-17T00:12:39.678Z,95.89
2023-01-17T00:15:11.192Z,95.99
2023-01-17T00:17:42.985Z,96.20
2023-01-17T00:20:33.394Z,96.40
2023-01-17T00:23:23.884Z,96.56
2023-01-17T00:26:04.520Z,96.64
2023-01-17T00:28:36.388Z,97.32
2023-01-17T00:31:07.958Z,97.28
2023-01-17T00:33:39.916Z,97.35
2023-01-17T00:36:11.381Z,97.68
2023-01-17T00:38:42.866Z,98.04
2023-01-17T00:41:14.429Z,98.11
2023-01-17T00:44:05.214Z,99.13
2023-01-17T00:46:55.371Z,99.20
2023-01-17T00:49:46.364Z,99.60
2023-01-17T00:52:37.030Z,99.67
2023-01-17T00:55:27.235Z,100.00
2023-01-17T00:58:18.048Z,99.83
2023-01-17T01:01:08.390Z,100.00
2023-01-17T01:03:59.051Z,100.00
2023-01-17T01:06:49.088Z,100.00
2023-01-17T01:09:39.685Z,100.00
2023-01-17T01:12:30.111Z,99.67
2023-01-17T01:15:20.201Z,99.36
2023-01-17T01:18:10.725Z,99.14
2023-01-17T01:21:01.295Z,98.68
2023-01-17T01:23:51.820Z,98.99
2023-01-17T01:26:42.379Z,98.02
2023-01-17T01:29:32.934Z,98.56
2023-01-17T01:32:23.423Z,98.20
2023-01-17T01:34:54.949Z,97.73
2023-01-17T01:37:26.957Z,97.48
2023-01-17T01:39:58.458Z,97.54
2023-01-17T01:42:30.069Z,97.36
2023-01-17T01:45:01.564Z,97.35
2023-01-17T01:47:33.426Z,97.67
2023-01-17T01:50:04.930Z,97.01
2023-01-17T01:52:36.826Z,97.09
2023-01-17T01:55:08.828Z,96.78
2023-01-17T01:57:40.774Z,96.59
2023-01-17T02:00:14.609Z,96.51
2023-01-17T02:02:46.428Z,96.50
2023-01-17T02:05:17.939Z,96.35
2023-01-17T02:07:50.046Z,96.26
2023-01-17T02:10:21.591Z,96.30
2023-01-17T02:12:53.458Z,96.09
2023-01-17T02:15:24.982Z,96.04
2023-01-17T02:17:57.023Z,96.25
2023-01-17T02:20:28.542Z,96.18
2023-01-17T02:23:00.097Z,96.50
2023-01-17T02:25:31.647Z,96.37
2023-01-17T02:28:04.549Z,96.94
2023-01-17T02:30:36.076Z,97.12
2023-01-17T02:33:08.052Z,97.03
2023-01-17T02:35:39.675Z,96.69
2023-01-17T02:38:11.493Z,96.22
2023-01-17T02:40:43.039Z,95.95
2023-01-17T02:43:15.003Z,95.49
2023-01-17T02:45:46.605Z,95.42
2023-01-17T02:48:18.437Z,95.47
2023-01-17T02:50:49.981Z,95.59
2023-01-17T02:53:21.861Z,95.86
2023-01-17T02:55:53.410Z,95.29
2023-01-17T02:58:25.234Z,95.46
2023-01-17T03:00:56.865Z,95.49
2023-01-17T03:03:28.418Z,96.12
2023-01-17T03:06:00.010Z,97.12
2023-01-17T03:08:31.803Z,98.13
2023-01-17T03:11:03.324Z,99.31
2023-01-17T03:13:35.210Z,100.00
2023-01-17T03:16:06.788Z,100.00
2023-01-17T03:18:38.653Z,100.00
2023-01-17T03:21:10.231Z,100.00
2023-01-17T03:23:42.179Z,100.00
2023-01-17T03:26:13.693Z,100.00
2023-01-17T03:28:45.566Z,100.00
2023-01-17T03:31:17.091Z,100.00
2023-01-17T03:33:48.736Z,100.00
2023-01-17T03:36:20.439Z,100.00
2023-01-17T03:38:52.266Z,100.00
2023-01-17T03:41:23.806Z,100.00
2023-01-17T03:43:55.669Z,100.00
2023-01-17T03:46:27.793Z,100.00
2023-01-17T03:48:59.327Z,100.00
2023-01-17T03:51:30.866Z,100.00
2023-01-17T03:54:02.410Z,100.00
2023-01-17T03:56:33.942Z,100.00
2023-01-17T03:59:05.466Z,100.00
2023-01-17T04:01:37.123Z,100.00
2023-01-17T04:04:09.118Z,100.00
2023-01-17T04:06:40.599Z,100.00
2023-01-17T04:09:12.392Z,100.00
2023-01-17T04:11:43.912Z,100.00
2023-01-17T04:14:15.702Z,100.00
2023-01-17T04:16:47.301Z,100.00
2023-01-17T04:19:19.178Z,100.00
2023-01-17T04:21:50.790Z,100.00
2023-01-17T04:24:22.674Z,100.00
2023-01-17T04:26:54.205Z,100.00
2023-01-17T04:29:26.010Z,100.00
2023-01-17T04:31:57.548Z,100.00
2023-01-17T04:34:29.467Z,100.00
2023-01-17T04:37:00.960Z,100.00
2023-01-17T04:39:32.823Z,100.00
2023-01-17T04:42:04.306Z,100.00
2023-01-17T04:44:36.134Z,100.00
2023-01-17T04:47:07.671Z,100.00
2023-01-17T04:49:39.441Z,100.00
2023-01-17T04:52:10.989Z,100.00
2023-01-17T04:54:42.936Z,100.00
2023-01-17T04:57:15.382Z,100.00
2023-01-17T04:59:47.275Z,100.00
2023-01-17T05:02:18.808Z,100.00
2023-01-17T05:04:50.642Z,100.00
2023-01-17T05:07:22.129Z,100.00
2023-01-17T05:09:54.441Z,100.00
2023-01-17T05:12:26.000Z,100.00
2023-01-17T05:14:57.846Z,100.00
2023-01-17T05:17:29.364Z,100.00
2023-01-17T05:20:01.528Z,100.00
2023-01-17T05:22:33.018Z,100.00
2023-01-17T05:25:04.830Z,100.00
2023-01-17T05:27:36.321Z,100.00
2023-01-17T05:30:08.189Z,100.00
2023-01-17T05:32:39.689Z,100.00
2023-01-17T05:35:11.561Z,100.00
2023-01-17T05:37:48.801Z,100.00
2023-01-17T05:40:20.638Z,100.00
2023-01-17T05:42:52.138Z,100.00
2023-01-17T05:45:23.819Z,100.00
2023-01-17T05:47:55.323Z,100.00
2023-01-17T05:50:27.264Z,100.00
2023-01-17T05:52:58.767Z,100.00
2023-01-17T05:55:30.619Z,100.00
2023-01-17T05:58:02.141Z,100.00
2023-01-17T06:00:34.069Z,100.00
2023-01-17T06:03:05.577Z,100.00
2023-01-17T06:05:37.498Z,100.00
2023-01-17T06:08:09.096Z,100.00
2023-01-17T06:10:40.998Z,100.00
2023-01-17T06:13:12.636Z,100.00
2023-01-17T06:15:44.961Z,100.00
2023-01-17T06:18:16.480Z,100.00
2023-01-17T06:20:48.539Z,100.00
2023-01-17T06:23:20.044Z,100.00
2023-01-17T06:25:52.097Z,100.00
2023-01-17T06:28:23.680Z,100.00
2023-01-17T06:30:55.520Z,100.00
2023-01-17T06:33:27.082Z,100.00
2023-01-17T06:35:59.151Z,100.00
2023-01-17T06:38:30.648Z,100.00
2023-01-17T06:41:02.453Z,100.00
2023-01-17T06:43:34.904Z,100.00
2023-01-17T06:46:06.863Z,100.00
2023-01-17T06:48:38.389Z,100.00
2023-01-17T06:51:10.184Z,100.00
2023-01-17T06:53:41.727Z,100.00
2023-01-17T06:56:13.602Z,100.00
2023-01-17T06:58:45.184Z,100.00
2023-01-17T07:01:17.078Z,100.00
2023-01-17T07:03:48.908Z,100.00
2023-01-17T07:06:20.866Z,100.00
2023-01-17T07:08:52.412Z,100.00
2023-01-17T07:11:24.455Z,100.00
2023-01-17T07:13:55.948Z,100.00
2023-01-17T07:16:27.723Z,100.00
2023-01-17T07:18:59.267Z,100.00
2023-01-17T07:21:31.076Z,100.00
2023-01-17T07:24:02.584Z,100.00
2023-01-17T07:26:34.917Z,100.00
2023-01-17T07:29:06.443Z,100.00
2023-01-17T07:31:40.807Z,100.00
2023-01-17T07:34:12.323Z,100.00
2023-01-17T07:36:44.161Z,100.00
2023-01-17T07:39:15.736Z,100.00
2023-01-17T07:41:47.933Z,100.00
2023-01-17T07:44:19.767Z,100.00
2023-01-17T07:46:51.510Z,100.00
2023-01-17T07:49:23.481Z,100.00
2023-01-17T07:51:55.498Z,100.00
2023-01-17T07:54:27.413Z,100.00
2023-01-17T07:56:58.948Z,100.00
2023-01-17T07:59:30.954Z,100.00
2023-01-17T08:02:02.662Z,100.00
2023-01-17T08:04:35.729Z,100.00
2023-01-17T08:07:07.221Z,100.00
2023-01-17T08:09:39.014Z,100.00
2023-01-17T08:12:13.252Z,100.00
2023-01-17T08:14:45.308Z,100.00
2023-01-17T08:20:27.679Z,100.00
2023-01-17T08:22:59.544Z,100.00
2023-01-17T08:25:33.320Z,100.00
2023-01-17T08:28:05.014Z,100.00
2023-01-17T08:30:36.884Z,100.00
2023-01-17T08:33:08.426Z,100.00
2023-01-17T08:35:41.457Z,100.00
2023-01-17T08:38:13.190Z,100.00
2023-01-17T08:40:45.233Z,100.00
2023-01-17T08:43:16.788Z,99.31
2023-01-17T08:45:48.975Z,99.25
2023-01-17T08:48:20.503Z,99.10
2023-01-17T08:50:52.276Z,100.00
2023-01-17T08:53:23.912Z,98.57
2023-01-17T08:55:55.737Z,98.82
2023-01-17T08:58:27.896Z,98.35
2023-01-17T09:01:01.601Z,97.84
2023-01-17T09:03:33.844Z,97.06
2023-01-17T09:06:05.748Z,95.92
2023-01-17T09:08:37.332Z,96.31
2023-01-17T09:11:09.153Z,94.97
2023-01-17T09:13:40.649Z,96.58
2023-01-17T09:16:15.352Z,96.08
2023-01-17T09:18:46.934Z,95.53
2023-01-17T09:21:19.105Z,95.65
2023-01-17T09:23:50.621Z,95.63
2023-01-17T09:26:22.494Z,97.27
2023-01-17T09:28:54.010Z,96.53
2023-01-17T09:31:27.390Z,95.12
2023-01-17T09:33:59.103Z,93.92
2023-01-17T09:36:32.156Z,94.07
2023-01-17T09:39:04.017Z,94.73
2023-01-17T09:41:35.835Z,95.06
2023-01-17T09:44:07.320Z,94.58
2023-01-17T09:46:39.306Z,95.11
2023-01-17T09:49:13.001Z,95.76
2023-01-17T09:51:45.257Z,96.23
2023-01-17T09:54:16.780Z,97.62
2023-01-17T09:56:49.269Z,99.59
2023-01-17T09:59:20.857Z,99.24
2023-01-17T10:01:52.752Z,97.39
2023-01-17T10:04:24.472Z,97.34
2023-01-17T10:06:56.390Z,96.52
2023-01-17T10:09:27.946Z,97.50
2023-01-17T10:12:00.118Z,98.71
2023-01-17T10:14:31.685Z,99.20
2023-01-17T10:17:03.657Z,99.51
2023-01-17T10:19:35.166Z,99.50
2023-01-17T10:22:07.959Z,100.00
2023-01-17T10:24:39.503Z,99.92
2023-01-17T10:27:11.350Z,99.85
2023-01-17T10:29:42.838Z,100.00
2023-01-17T10:32:14.714Z,99.74
2023-01-17T10:34:46.236Z,98.60
2023-01-17T10:37:18.086Z,99.40
2023-01-17T10:39:49.697Z,98.71
2023-01-17T10:42:21.513Z,98.38
2023-01-17T10:44:53.144Z,98.49
2023-01-17T10:47:25.110Z,98.45
2023-01-17T10:49:58.383Z,97.88
2023-01-17T10:52:30.262Z,97.77
2023-01-17T10:55:05.205Z,97.63
2023-01-17T10:57:37.083Z,98.22
2023-01-17T11:00:08.615Z,99.38
2023-01-17T11:02:43.438Z,100.00
2023-01-17T11:05:14.963Z,99.95
2023-01-17T11:07:48.721Z,100.00
2023-01-17T11:10:20.311Z,100.00
2023-01-17T11:12:52.124Z,97.66
2023-01-17T11:15:25.939Z,97.30
2023-01-17T11:17:57.893Z,96.93
2023-01-17T11:20:29.472Z,98.79
2023-01-17T11:23:02.545Z,100.00
2023-01-17T11:25:34.286Z,100.00
2023-01-17T11:28:06.352Z,100.00
2023-01-17T11:30:37.844Z,100.00
2023-01-17T11:33:09.719Z,100.00
2023-01-17T11:35:41.238Z,100.00
2023-01-17T11:38:13.126Z,100.00
2023-01-17T11:40:44.659Z,100.00
2023-01-17T11:43:18.855Z,100.00
2023-01-17T11:45:50.472Z,100.00
2023-01-17T11:48:23.308Z,100.00
2023-01-17T11:50:55.199Z,100.00
2023-01-17T11:53:27.037Z,100.00
2023-01-17T11:55:58.590Z,100.00
2023-01-17T11:58:30.498Z,100.00
2023-01-17T12:01:02.479Z,100.00
2023-01-17T12:03:34.029Z,100.00
2023-01-17T12:06:06.123Z,100.00
2023-01-17T12:08:37.662Z,100.00
2023-01-17T12:11:09.389Z,100.00
2023-01-17T12:13:59.405Z,100.00
2023-01-17T12:16:31.426Z,100.00
2023-01-17T12:19:02.925Z,100.00
2023-01-17T12:21:34.960Z,100.00
2023-01-17T12:24:06.457Z,100.00
2023-01-17T12:26:38.268Z,100.00
2023-01-17T12:29:09.772Z,100.00
2023-01-17T12:31:41.703Z,100.00
2023-01-17T12:34:13.901Z,100.00
2023-01-17T12:36:47.356Z,96.85
2023-01-17T12:39:19.916Z,95.57
2023-01-17T12:41:52.164Z,93.62
2023-01-17T12:44:23.648Z,89.38
2023-01-17T12:46:55.679Z,88.38
2023-01-17T12:49:27.169Z,87.91
2023-01-17T12:51:59.036Z,89.94
2023-01-17T12:54:30.553Z,87.74
2023-01-17T12:57:02.485Z,90.39
2023-01-17T12:59:34.009Z,88.30
2023-01-17T13:02:05.960Z,90.33
2023-01-17T13:04:46.873Z,90.04
2023-01-17T13:07:29.264Z,90.11
2023-01-17T13:10:00.786Z,90.26
2023-01-17T13:12:32.815Z,89.82
2023-01-17T13:15:07.120Z,88.53
2023-01-17T13:17:38.996Z,88.18
2023-01-17T13:20:10.504Z,85.47
2023-01-17T13:22:42.345Z,86.63
2023-01-17T13:25:13.858Z,84.07
2023-01-17T13:27:46.906Z,82.44
2023-01-17T13:30:18.511Z,81.94
2023-01-17T13:32:50.504Z,82.87
2023-01-17T13:35:22.459Z,83.99
2023-01-17T13:37:54.426Z,84.82
2023-01-17T13:40:28.030Z,85.36
2023-01-17T13:43:01.352Z,87.28
2023-01-17T13:45:32.992Z,87.73
2023-01-17T13:48:04.861Z,88.61
2023-01-17T13:50:36.344Z,89.97
2023-01-17T13:53:08.291Z,88.31
2023-01-17T13:55:39.797Z,90.05
2023-01-17T13:58:11.595Z,89.27
2023-01-17T14:00:43.138Z,89.66
2023-01-17T14:03:15.411Z,90.92
2023-01-17T14:05:49.215Z,91.96
2023-01-17T14:08:22.312Z,92.18
2023-01-17T14:10:54.043Z,92.50
2023-01-17T14:13:25.879Z,93.57
2023-01-17T14:15:57.357Z,92.22
2023-01-17T14:18:29.816Z,92.54
2023-01-17T14:21:01.363Z,92.54
2023-01-17T14:23:33.238Z,92.50
2023-01-17T14:26:04.824Z,90.05
2023-01-17T14:28:36.690Z,88.46
2023-01-17T14:31:08.196Z,87.65
2023-01-17T14:33:39.931Z,87.70
2023-01-17T14:36:13.417Z,87.73
2023-01-17T14:38:46.406Z,88.48
2023-01-17T14:41:17.892Z,89.13
2023-01-17T14:43:49.429Z,88.11
2023-01-17T14:46:20.946Z,88.11
2023-01-17T14:48:52.875Z,87.93
2023-01-17T14:51:25.004Z,88.95
2023-01-17T14:53:57.105Z,88.03
2023-01-17T14:56:28.611Z,88.19
2023-01-17T14:59:00.403Z,88.25
2023-01-17T15:01:32.084Z,86.09
2023-01-17T15:04:05.434Z,86.37
2023-01-17T15:06:38.096Z,86.53
2023-01-17T15:09:09.879Z,85.92
2023-01-17T15:11:41.380Z,86.63
2023-01-17T15:14:13.410Z,84.97
2023-01-17T15:16:44.949Z,85.51
2023-01-17T15:19:16.803Z,85.27
2023-01-17T15:21:50.316Z,85.38
2023-01-17T15:24:22.128Z,85.71
2023-01-17T15:26:54.612Z,85.19
2023-01-17T15:29:26.581Z,85.39
2023-01-17T15:32:01.247Z,86.03
2023-01-17T15:34:33.078Z,85.85
2023-01-17T15:37:04.597Z,86.99
2023-01-17T15:39:36.356Z,87.52
2023-01-17T15:42:07.917Z,88.31
2023-01-17T15:44:47.944Z,88.16
2023-01-17T15:47:20.272Z,88.10
2023-01-17T15:49:54.532Z,88.92
2023-01-17T15:52:26.168Z,88.95
2023-01-17T15:54:59.061Z,89.72
2023-01-17T15:57:31.038Z,90.80
2023-01-17T16:00:04.964Z,90.89
2023-01-17T16:02:37.253Z,91.26
2023-01-17T16:05:08.879Z,92.09
2023-01-17T16:07:40.735Z,92.61
2023-01-17T16:10:12.271Z,92.36
2023-01-17T16:12:44.127Z,92.47
2023-01-17T16:15:18.191Z,92.76
2023-01-17T16:17:50.782Z,92.98
2023-01-17T16:20:22.471Z,92.83
2023-01-17T16:22:54.277Z,92.98
2023-01-17T16:25:28.953Z,92.83
2023-01-17T16:28:00.794Z,92.94
2023-01-17T16:30:32.361Z,93.59
2023-01-17T16:33:04.354Z,94.14
2023-01-17T16:35:36.837Z,94.34
2023-01-17T16:38:08.778Z,94.52
2023-01-17T16:40:40.292Z,95.47
2023-01-17T16:43:12.487Z,95.84
2023-01-17T16:45:44.017Z,97.47
2023-01-17T16:48:18.291Z,98.79
2023-01-17T16:50:52.226Z,99.28
2023-01-17T16:53:24.800Z,100.00
2023-01-17T16:55:56.765Z,100.00
2023-01-17T16:58:28.611Z,100.00
2023-01-17T17:01:00.370Z,100.00
2023-01-17T17:03:32.239Z,100.00
2023-01-17T17:06:04.081Z,100.00
2023-01-17T17:08:35.895Z,100.00
2023-01-17T17:11:07.410Z,100.00
2023-01-17T17:13:39.244Z,100.00
2023-01-17T17:16:11.252Z,100.00
2023-01-17T17:18:43.086Z,100.00
2023-01-17T17:21:14.746Z,100.00
2023-01-17T17:23:46.740Z,100.00
2023-01-17T17:26:18.553Z,100.00
2023-01-17T17:28:50.518Z,100.00
2023-01-17T17:31:22.124Z,100.00
2023-01-17T17:33:54.015Z,100.00
2023-01-17T17:36:25.523Z,100.00
2023-01-17T17:38:57.430Z,100.00
2023-01-17T17:41:28.939Z,100.00
2023-01-17T17:44:00.841Z,100.00
2023-01-17T17:46:33.693Z,100.00
2023-01-17T17:49:07.115Z,100.00
2023-01-17T17:51:38.643Z,100.00
2023-01-17T17:54:10.459Z,100.00
2023-01-17T17:56:46.406Z,100.00
2023-01-17T17:59:21.397Z,100.00
2023-01-17T18:01:52.974Z,100.00
2023-01-17T18:04:24.518Z,100.00
2023-01-17T18:06:56.215Z,100.00
2023-01-17T18:09:28.367Z,100.00
2023-01-17T18:12:00.028Z,100.00
2023-01-17T18:14:31.990Z,100.00
2023-01-17T18:17:03.536Z,100.00
2023-01-17T18:19:35.398Z,100.00
2023-01-17T18:22:06.915Z,100.00
2023-01-17T18:24:38.725Z,100.00
2023-01-17T18:27:10.519Z,100.00
2023-01-17T18:29:42.156Z,100.00
2023-01-17T18:32:13.660Z,100.00
2023-01-17T18:34:45.822Z,100.00
2023-01-17T18:37:17.304Z,100.00
2023-01-17T18:39:49.049Z,100.00
2023-01-17T18:42:22.478Z,100.00
2023-01-17T18:44:54.981Z,100.00
2023-01-17T18:47:26.466Z,100.00
2023-01-17T18:49:58.105Z,100.00
2023-01-17T18:52:29.576Z,100.00
2023-01-17T18:55:01.346Z,100.00
2023-01-17T18:57:32.854Z,100.00
2023-01-17T19:00:04.711Z,100.00
2023-01-17T19:02:36.367Z,100.00
2023-01-17T19:05:09.792Z,100.00
2023-01-17T19:07:41.276Z,100.00
2023-01-17T19:10:13.148Z,100.00
2023-01-17T19:12:45.465Z,100.00
2023-01-17T19:15:17.318Z,100.00
2023-01-17T19:17:48.811Z,100.00
2023-01-17T19:20:20.749Z,100.00
2023-01-17T19:22:52.612Z,100.00
2023-01-17T19:25:26.006Z,100.00
2023-01-17T19:27:58.108Z,100.00
2023-01-17T19:30:30.043Z,100.00
2023-01-17T19:33:04.457Z,100.00
2023-01-17T19:35:37.780Z,100.00
2023-01-17T19:38:09.280Z,100.00
2023-01-17T19:40:41.297Z,100.00
2023-01-17T19:43:12.862Z,100.00
2023-01-17T19:45:44.749Z,100.00
2023-01-17T19:48:16.828Z,100.00
2023-01-17T19:50:48.999Z,100.00
2023-01-17T19:53:20.496Z,100.00
2023-01-17T19:55:52.356Z,100.00
2023-01-17T19:58:23.874Z,100.00
2023-01-17T20:00:55.723Z,100.00
2023-01-17T20:03:27.277Z,100.00
2023-01-17T20:05:59.160Z,100.00
2023-01-17T20:08:30.711Z,100.00
2023-01-17T20:11:02.767Z,100.00
2023-01-17T20:13:34.332Z,100.00
2023-01-17T20:16:06.294Z,100.00
2023-01-17T20:18:37.898Z,100.00
2023-01-17T20:21:09.801Z,100.00
2023-01-17T20:23:44.345Z,100.00
2023-01-17T20:26:16.093Z,100.00
2023-01-17T20:28:47.995Z,100.00
2023-01-17T20:31:19.528Z,100.00
2023-01-17T20:33:51.048Z,100.00
2023-01-17T20:36:22.589Z,100.00
2023-01-17T20:38:54.769Z,100.00
2023-01-17T20:41:26.318Z,100.00
2023-01-17T20:43:58.186Z,100.00
2023-01-17T20:46:29.758Z,100.00
2023-01-17T20:49:01.338Z,100.00
2023-01-17T20:51:38.359Z,100.00
2023-01-17T20:54:10.344Z,100.00
2023-01-17T20:56:41.939Z,100.00
2023-01-17T20:59:14.729Z,100.00
2023-01-17T21:01:46.664Z,100.00
2023-01-17T21:04:25.313Z,100.00
2023-01-17T21:06:57.493Z,100.00
2023-01-17T21:09:29.018Z,100.00
2023-01-17T21:12:01.481Z,100.00
2023-01-17T21:14:33.095Z,100.00
2023-01-17T21:17:04.626Z,100.00
2023-01-17T21:19:36.935Z,100.00
2023-01-17T21:22:08.414Z,100.00
2023-01-17T21:24:40.282Z,100.00
2023-01-17T21:27:12.863Z,100.00
2023-01-17T21:29:44.680Z,100.00
2023-01-17T21:32:17.201Z,100.00
2023-01-17T21:34:49.170Z,100.00
2023-01-17T21:37:20.760Z,100.00
2023-01-17T21:39:55.116Z,100.00
2023-01-17T21:42:26.664Z,100.00
2023-01-17T21:44:58.658Z,100.00
2023-01-17T21:47:30.171Z,100.00
2023-01-17T21:50:02.039Z,100.00
2023-01-17T21:52:33.686Z,100.00
2023-01-17T21:55:24.216Z,100.00
2023-01-17T21:58:14.442Z,100.00
2023-01-17T22:00:46.169Z,100.00
2023-01-17T22:03:17.713Z,100.00
2023-01-17T22:05:49.547Z,100.00
2023-01-17T22:08:21.141Z,100.00
2023-01-17T22:10:53.069Z,100.00
2023-01-17T22:13:25.053Z,100.00
2023-01-17T22:15:56.963Z,100.00
2023-01-17T22:18:28.548Z,100.00
2023-01-17T22:21:00.358Z,100.00
2023-01-17T22:23:31.892Z,100.00
2023-01-17T22:26:03.840Z,100.00
2023-01-17T22:28:35.361Z,100.00
2023-01-17T22:31:08.981Z,100.00
2023-01-17T22:33:40.512Z,100.00
2023-01-17T22:36:14.042Z,100.00
2023-01-17T22:38:45.594Z,100.00
2023-01-17T22:41:17.665Z,100.00
2023-01-17T22:43:49.163Z,100.00
2023-01-17T22:46:21.045Z,100.00
2023-01-17T22:48:52.601Z,100.00
2023-01-17T22:51:24.461Z,100.00
2023-01-17T22:53:56.019Z,100.00
2023-01-17T22:56:27.772Z,100.00
2023-01-17T22:59:00.614Z,100.00
2023-01-17T23:01:33.048Z,100.00
2023-01-17T23:04:04.550Z,100.00
2023-01-17T23:06:36.292Z,100.00
2023-01-17T23:09:08.261Z,100.00
2023-01-17T23:11:40.977Z,100.00
2023-01-17T23:14:12.750Z,100.00
2023-01-17T23:17:03.585Z,100.00
2023-01-17T23:19:35.192Z,100.00
2023-01-17T23:22:16.263Z,100.00
2023-01-17T23:24:48.138Z,100.00
2023-01-17T23:27:38.319Z,100.00
2023-01-17T23:30:11.031Z,100.00
2023-01-17T23:32:42.519Z,100.00
2023-01-17T23:35:14.388Z,100.00
2023-01-17T23:38:04.554Z,100.00
2023-01-17T23:40:36.382Z,100.00
2023-01-17T23:43:23.198Z,100.00
2023-01-17T23:45:54.989Z,100.00
2023-01-17T23:48:26.468Z,100.00
2023-01-17T23:50:58.442Z,100.00
2023-01-17T23:53:29.954Z,100.00
2023-01-17T23:56:01.925Z,100.00
2023-01-17T23:58:33.985Z,100.00
